createdAt,value
2023-05-21T10:46:16.558Z,56.59
2023-05-21T10:47:16.564Z,55.29
2023-05-21T10:48:16.626Z,56.74
2023-05-21T10:49:18.225Z,57.28
2023-05-21T10:50:18.072Z,55.93
2023-05-21T10:51:18.126Z,56.60
2023-05-21T10:52:18.037Z,56.23
2023-05-21T10:53:18.030Z,56.49
2023-05-21T10:54:17.816Z,55.64
2023-05-21T10:55:17.651Z,55.34
2023-05-21T10:56:17.492Z,54.95
2023-05-21T10:57:17.623Z,56.16
2023-05-21T10:58:17.318Z,57.89
2023-05-21T10:59:17.369Z,57.31
2023-05-21T11:00:17.892Z,55.73
2023-05-21T11:01:17.741Z,56.68
2023-05-21T11:02:18.032Z,54.94
2023-05-21T11:03:17.829Z,56.00
2023-05-21T11:04:17.969Z,56.67
2023-05-21T11:05:18.069Z,56.98
2023-05-21T11:06:17.712Z,56.37
2023-05-21T11:07:17.651Z,56.22
2023-05-21T11:08:17.854Z,56.35
2023-05-21T11:09:17.624Z,55.32
2023-05-21T11:10:17.924Z,55.16
2023-05-21T11:11:17.635Z,56.34
2023-05-21T11:12:17.696Z,53.56
2023-05-21T11:13:17.928Z,56.07
2023-05-21T11:14:19.215Z,56.65
2023-05-21T11:15:17.697Z,55.29
2023-05-21T11:16:17.759Z,55.48
2023-05-21T11:17:17.954Z,54.18
2023-05-21T11:18:17.467Z,54.96
2023-05-21T11:19:17.320Z,55.60
2023-05-21T11:20:17.870Z,55.96
2023-05-21T11:21:17.224Z,53.85
2023-05-21T11:22:17.396Z,55.08
2023-05-21T11:23:17.972Z,55.89
2023-05-21T11:24:17.466Z,57.33
2023-05-21T11:25:17.475Z,55.38
2023-05-21T11:26:17.427Z,55.79
2023-05-21T11:27:17.342Z,54.31
2023-05-21T11:28:17.632Z,55.95
2023-05-21T11:29:17.808Z,57.56
2023-05-21T11:30:17.722Z,56.13
2023-05-21T11:31:17.853Z,54.86
2023-05-21T11:32:17.758Z,54.62
2023-05-21T11:33:17.464Z,55.46
2023-05-21T11:34:17.964Z,55.21
2023-05-21T11:35:17.401Z,55.60
2023-05-21T11:36:17.181Z,55.92
2023-05-21T11:37:17.143Z,55.09
2023-05-21T11:38:17.206Z,54.91
2023-05-21T11:39:17.081Z,56.67
2023-05-21T11:40:17.372Z,56.42
2023-05-21T11:41:17.485Z,54.66
2023-05-21T11:42:17.880Z,55.79
2023-05-21T11:43:17.322Z,56.61
2023-05-21T11:44:17.715Z,56.53
2023-05-21T11:45:17.775Z,56.02
2023-05-21T11:46:17.284Z,56.11
2023-05-21T11:47:17.902Z,55.63
2023-05-21T11:48:17.457Z,56.58
2023-05-21T11:49:17.483Z,55.49
2023-05-21T11:50:17.427Z,55.89
2023-05-21T11:51:17.279Z,56.32
2023-05-21T11:52:17.104Z,55.36
2023-05-21T11:53:17.724Z,55.44
2023-05-21T11:54:17.437Z,57.13
2023-05-21T11:55:17.025Z,56.31
2023-05-21T11:56:17.278Z,54.27
2023-05-21T11:57:17.191Z,55.44
2023-05-21T11:58:17.310Z,56.33
2023-05-21T11:59:18.672Z,57.44
2023-05-21T12:00:17.878Z,55.85
2023-05-21T12:01:17.120Z,57.05
2023-05-21T12:02:17.044Z,56.95
2023-05-21T12:03:17.042Z,56.43
2023-05-21T12:04:17.013Z,56.43
2023-05-21T12:05:16.847Z,55.95
2023-05-21T12:06:17.354Z,55.85
2023-05-21T12:07:16.942Z,57.51
2023-05-21T12:08:17.078Z,55.39
2023-05-21T12:09:16.776Z,55.55
2023-05-21T12:10:17.301Z,54.65
2023-05-21T12:11:17.199Z,54.45
2023-05-21T12:12:17.034Z,57.07
2023-05-21T12:13:17.250Z,56.66
2023-05-21T12:14:17.371Z,53.86
2023-05-21T12:15:16.904Z,55.43
2023-05-21T12:16:17.211Z,55.40
2023-05-21T12:17:16.755Z,55.92
2023-05-21T12:18:17.321Z,56.45
2023-05-21T12:19:16.726Z,57.69
2023-05-21T12:20:16.720Z,55.19
2023-05-21T12:21:16.934Z,55.71
2023-05-21T12:22:17.077Z,54.80
2023-05-21T12:23:16.816Z,53.51
2023-05-21T12:24:17.298Z,55.97
2023-05-21T12:25:17.306Z,56.04
2023-05-21T12:26:17.077Z,54.93
2023-05-21T12:27:16.769Z,55.50
2023-05-21T12:28:17.354Z,55.06
2023-05-21T12:29:16.859Z,53.79
2023-05-21T12:30:16.912Z,54.16
2023-05-21T12:31:17.421Z,58.94
2023-05-21T12:32:16.886Z,55.90
2023-05-21T12:33:16.969Z,55.60
2023-05-21T12:34:16.939Z,53.49
2023-05-21T12:35:17.693Z,55.84
2023-05-21T12:36:17.422Z,55.84
2023-05-21T12:37:17.125Z,55.10
2023-05-21T12:38:18.080Z,55.77
2023-05-21T12:39:17.034Z,55.62
2023-05-21T12:40:17.239Z,55.20
2023-05-21T12:41:17.079Z,54.06
2023-05-21T12:42:17.380Z,55.28
2023-05-21T12:43:17.197Z,54.61
2023-05-21T12:44:17.075Z,53.81
2023-05-21T12:45:17.125Z,53.29
2023-05-21T12:46:17.030Z,54.69
2023-05-21T12:47:16.702Z,56.64
2023-05-21T12:48:16.762Z,55.23
2023-05-21T12:49:16.626Z,55.06
2023-05-21T12:50:17.260Z,54.55
2023-05-21T12:51:17.568Z,55.77
2023-05-21T12:52:16.989Z,56.30
2023-05-21T12:53:17.047Z,54.65
2023-05-21T12:54:16.838Z,54.44
2023-05-21T12:55:17.200Z,56.32
2023-05-21T12:56:16.978Z,55.73
2023-05-21T12:57:17.201Z,56.25
2023-05-21T12:58:16.855Z,54.98
2023-05-21T12:59:17.453Z,56.49
2023-05-21T13:00:16.746Z,54.99
2023-05-21T13:01:17.040Z,53.92
2023-05-21T13:02:17.295Z,54.84
2023-05-21T13:03:16.673Z,53.95
2023-05-21T13:04:17.064Z,54.34
2023-05-21T13:05:16.897Z,55.69
2023-05-21T13:06:17.100Z,54.58
2023-05-21T13:07:17.190Z,53.72
2023-05-21T13:08:17.065Z,54.07
2023-05-21T13:09:17.025Z,55.45
2023-05-21T13:10:17.132Z,55.63
2023-05-21T13:11:18.134Z,55.15
2023-05-21T13:12:17.212Z,55.50
2023-05-21T13:13:16.996Z,55.10
2023-05-21T13:14:16.791Z,55.06
2023-05-21T13:15:16.813Z,55.92
2023-05-21T13:16:17.038Z,54.53
2023-05-21T13:17:17.432Z,55.71
2023-05-21T13:18:17.000Z,54.60
2023-05-21T13:19:17.130Z,55.16
2023-05-21T13:20:16.718Z,54.93
2023-05-21T13:21:16.934Z,54.66
2023-05-21T13:22:16.972Z,55.79
2023-05-21T13:23:17.384Z,55.62
2023-05-21T13:24:16.980Z,56.32
2023-05-21T13:25:16.800Z,56.25
2023-05-21T13:26:16.667Z,55.44
2023-05-21T13:27:16.874Z,54.09
2023-05-21T13:28:18.024Z,54.54
2023-05-21T13:29:16.649Z,55.02
2023-05-21T13:30:16.756Z,55.19
2023-05-21T13:31:16.255Z,54.06
2023-05-21T13:32:16.774Z,53.54
2023-05-21T13:33:17.131Z,55.14
2023-05-21T13:34:16.641Z,54.94
2023-05-21T13:35:17.277Z,55.21
2023-05-21T13:36:16.777Z,54.32
2023-05-21T13:37:17.092Z,54.11
2023-05-21T13:38:16.687Z,54.50
2023-05-21T13:39:16.693Z,54.05
2023-05-21T13:40:16.582Z,55.80
2023-05-21T13:41:16.588Z,55.98
2023-05-21T13:42:16.887Z,56.80
2023-05-21T13:43:16.624Z,53.54
2023-05-21T13:44:16.911Z,53.67
2023-05-21T13:45:16.637Z,55.16
2023-05-21T13:46:16.743Z,53.56
2023-05-21T13:47:16.606Z,52.77
2023-05-21T13:48:16.727Z,51.98
2023-05-21T13:49:16.678Z,52.44
2023-05-21T13:50:16.979Z,53.96
2023-05-21T13:51:30.788Z,52.79
2023-05-21T13:52:18.038Z,51.97
2023-05-21T13:53:16.327Z,51.09
2023-05-21T13:54:16.661Z,52.00
2023-05-21T13:55:16.268Z,50.97
2023-05-21T13:56:16.724Z,50.34
2023-05-21T13:57:16.697Z,49.35
2023-05-21T13:58:16.396Z,50.37
2023-05-21T13:59:16.623Z,49.97
2023-05-21T14:00:16.594Z,50.20
2023-05-21T14:01:16.541Z,49.30
2023-05-21T14:02:16.666Z,50.34
2023-05-21T14:03:16.542Z,52.58
2023-05-21T14:04:16.776Z,51.90
2023-05-21T14:05:16.374Z,53.74
2023-05-21T14:06:16.378Z,57.08
2023-05-21T14:07:16.362Z,50.82
2023-05-21T14:08:16.588Z,50.85
2023-05-21T14:09:16.466Z,50.91
2023-05-21T14:10:16.501Z,51.34
2023-05-21T14:11:16.674Z,52.13
2023-05-21T14:12:16.421Z,50.93
2023-05-21T14:13:20.021Z,49.43
2023-05-21T14:14:17.062Z,49.06
2023-05-21T14:15:16.625Z,49.46
2023-05-21T14:16:16.785Z,49.28
2023-05-21T14:17:17.701Z,52.14
2023-05-21T14:18:16.438Z,55.02
2023-05-21T14:19:16.574Z,50.32
2023-05-21T14:20:17.669Z,50.92
2023-05-21T14:21:16.668Z,50.58
2023-05-21T14:22:16.370Z,53.75
2023-05-21T14:23:16.318Z,51.12
2023-05-21T14:24:16.379Z,52.96
2023-05-21T14:25:16.360Z,52.65
2023-05-21T14:26:16.457Z,53.09
2023-05-21T14:27:17.854Z,52.40
2023-05-21T14:28:16.663Z,51.48
2023-05-21T14:29:16.474Z,50.71
2023-05-21T14:30:16.570Z,54.24
2023-05-21T14:31:16.543Z,54.72
2023-05-21T14:32:16.889Z,52.35
2023-05-21T14:33:16.755Z,51.34
2023-05-21T14:34:16.388Z,53.80
2023-05-21T14:35:16.439Z,54.29
2023-05-21T14:36:16.430Z,53.06
2023-05-21T14:37:16.318Z,54.77
2023-05-21T14:38:15.996Z,52.75
2023-05-21T14:39:16.231Z,52.38
2023-05-21T14:40:16.074Z,52.51
2023-05-21T14:41:16.373Z,52.79
2023-05-21T14:42:17.009Z,51.21
2023-05-21T14:43:16.147Z,51.02
2023-05-21T14:44:16.258Z,53.61
2023-05-21T14:45:18.660Z,51.71
2023-05-21T14:46:17.201Z,53.00
2023-05-21T14:47:16.571Z,54.93
2023-05-21T14:48:16.698Z,54.97
2023-05-21T14:49:16.286Z,53.29
2023-05-21T14:50:16.439Z,52.74
2023-05-21T14:51:16.452Z,54.77
2023-05-21T14:52:16.359Z,54.65
2023-05-21T14:53:18.436Z,55.32
2023-05-21T14:54:16.225Z,55.83
2023-05-21T14:55:17.295Z,55.54
2023-05-21T14:56:17.293Z,56.52
2023-05-21T14:57:16.241Z,55.29
2023-05-21T14:58:16.636Z,55.71
2023-05-21T14:59:16.236Z,54.63
2023-05-21T15:00:16.193Z,55.11
2023-05-21T15:01:16.152Z,55.99
2023-05-21T15:02:16.219Z,55.50
2023-05-21T15:03:16.325Z,55.65
2023-05-21T15:04:16.211Z,55.79
2023-05-21T15:05:16.386Z,55.36
2023-05-21T15:06:17.270Z,55.68
2023-05-21T15:07:16.110Z,56.00
2023-05-21T15:08:16.093Z,56.10
2023-05-21T15:09:16.448Z,54.05
2023-05-21T15:10:18.578Z,54.45
2023-05-21T15:11:16.168Z,56.05
2023-05-21T15:12:16.342Z,54.51
2023-05-21T15:13:16.266Z,54.06
2023-05-21T15:14:16.676Z,54.26
2023-05-21T15:15:16.276Z,55.25
2023-05-21T15:16:17.358Z,55.54
2023-05-21T15:17:16.243Z,54.87
2023-05-21T15:18:15.886Z,55.78
2023-05-21T15:19:15.999Z,53.75
2023-05-21T15:20:16.701Z,55.52
2023-05-21T15:21:16.059Z,55.85
2023-05-21T15:22:16.128Z,54.99
2023-05-21T15:23:17.725Z,54.32
2023-05-21T15:24:17.113Z,55.93
2023-05-21T15:25:16.397Z,56.52
2023-05-21T15:26:16.396Z,53.95
2023-05-21T15:27:15.883Z,55.49
2023-05-21T15:28:15.967Z,53.83
2023-05-21T15:29:17.140Z,52.48
2023-05-21T15:30:16.017Z,54.88
2023-05-21T15:31:16.154Z,54.10
2023-05-21T15:32:15.809Z,54.58
2023-05-21T15:33:15.957Z,54.63
2023-05-21T15:34:16.185Z,53.98
2023-05-21T15:35:15.873Z,53.92
2023-05-21T15:36:15.850Z,54.21
2023-05-21T15:37:15.664Z,55.09
2023-05-21T15:38:15.608Z,53.71
2023-05-21T15:39:15.774Z,55.10
2023-05-21T15:40:15.734Z,54.27
2023-05-21T15:41:15.855Z,54.89
2023-05-21T15:42:15.792Z,55.03
2023-05-21T15:43:15.648Z,55.99
2023-05-21T15:44:15.850Z,55.26
2023-05-21T15:45:15.888Z,56.15
2023-05-21T15:46:16.256Z,55.14
2023-05-21T15:47:15.896Z,54.80
2023-05-21T15:48:15.878Z,54.85
2023-05-21T15:49:16.750Z,54.96
2023-05-21T15:50:15.878Z,55.68
2023-05-21T15:51:15.824Z,55.52
2023-05-21T15:52:17.168Z,56.35
2023-05-21T15:53:15.874Z,55.54
2023-05-21T15:54:15.890Z,54.48
2023-05-21T15:55:15.851Z,54.00
2023-05-21T15:56:15.921Z,54.55
2023-05-21T15:57:16.083Z,56.05
2023-05-21T15:58:15.657Z,56.10
2023-05-21T15:59:15.773Z,54.82
2023-05-21T16:00:15.678Z,54.78
2023-05-21T16:01:15.902Z,56.56
2023-05-21T16:02:16.497Z,54.73
2023-05-21T16:03:15.794Z,58.32
2023-05-21T16:04:15.753Z,57.43
2023-05-21T16:05:15.593Z,56.81
2023-05-21T16:06:15.212Z,55.55
2023-05-21T16:07:15.721Z,54.82
2023-05-21T16:08:15.900Z,57.17
2023-05-21T16:09:15.704Z,56.82
2023-05-21T16:10:15.783Z,55.96
2023-05-21T16:11:15.857Z,57.42
2023-05-21T16:12:15.879Z,55.16
2023-05-21T16:13:15.974Z,57.91
2023-05-21T16:14:15.728Z,56.02
2023-05-21T16:15:15.804Z,57.82
2023-05-21T16:16:15.603Z,57.85
2023-05-21T16:17:15.646Z,58.72
2023-05-21T16:18:16.416Z,59.41
2023-05-21T16:19:15.687Z,58.38
2023-05-21T16:20:15.649Z,57.55
2023-05-21T16:21:15.559Z,55.11
2023-05-21T16:22:15.580Z,57.54
2023-05-21T16:23:15.487Z,57.92
2023-05-21T16:24:15.687Z,57.93
2023-05-21T16:25:15.446Z,57.57
2023-05-21T16:26:15.646Z,57.31
2023-05-21T16:27:15.642Z,57.36
2023-05-21T16:28:15.748Z,55.09
2023-05-21T16:29:15.892Z,56.55
2023-05-21T16:30:15.589Z,55.85
2023-05-21T16:31:15.499Z,56.66
2023-05-21T16:32:15.985Z,57.52
2023-05-21T16:33:15.656Z,56.20
2023-05-21T16:34:15.793Z,56.73
2023-05-21T16:35:15.592Z,55.83
2023-05-21T16:36:17.475Z,57.36
2023-05-21T16:37:15.537Z,57.02
2023-05-21T16:38:15.448Z,56.67
2023-05-21T16:39:15.540Z,56.64
2023-05-21T16:40:15.712Z,56.32
2023-05-21T16:41:15.345Z,57.46
2023-05-21T16:42:15.528Z,56.88
2023-05-21T16:43:15.567Z,57.00
2023-05-21T16:44:15.751Z,56.86
2023-05-21T16:45:15.642Z,55.44
2023-05-21T16:46:16.941Z,56.22
2023-05-21T16:47:15.565Z,56.61
2023-05-21T16:48:15.566Z,55.92
2023-05-21T16:49:15.615Z,55.27
2023-05-21T16:50:15.960Z,56.34
2023-05-21T16:51:15.542Z,55.56
2023-05-21T16:52:15.548Z,55.57
2023-05-21T16:53:15.541Z,54.33
2023-05-21T16:54:15.486Z,56.88
2023-05-21T16:55:15.401Z,54.56
2023-05-21T16:56:16.038Z,55.03
2023-05-21T16:57:15.299Z,56.52
2023-05-21T16:58:15.652Z,54.86
2023-05-21T16:59:15.491Z,55.54
2023-05-21T17:00:15.456Z,55.68
2023-05-21T17:01:15.772Z,55.84
2023-05-21T17:02:15.382Z,56.44
2023-05-21T17:03:15.461Z,55.16
2023-05-21T17:04:16.488Z,56.13
2023-05-21T17:05:15.286Z,54.98
2023-05-21T17:06:16.002Z,55.31
2023-05-21T17:07:15.324Z,56.23
2023-05-21T17:08:15.432Z,57.88
2023-05-21T17:09:16.490Z,57.78
2023-05-21T17:10:15.436Z,55.96
2023-05-21T17:11:15.689Z,55.64
2023-05-21T17:12:15.900Z,55.05
2023-05-21T17:13:22.170Z,54.92
2023-05-21T17:14:32.682Z,54.23
2023-05-21T17:15:17.247Z,54.99
2023-05-21T17:16:15.311Z,54.96
2023-05-21T17:17:15.531Z,55.34
2023-05-21T17:18:15.341Z,55.15
2023-05-21T17:19:15.375Z,55.49
2023-05-21T17:20:15.328Z,54.14
2023-05-21T17:21:15.253Z,55.85
2023-05-21T17:22:15.426Z,54.18
2023-05-21T17:23:15.411Z,53.36
2023-05-21T17:24:15.292Z,55.17
2023-05-21T17:25:15.232Z,55.43
2023-05-21T17:26:15.172Z,56.84
2023-05-21T17:27:15.313Z,59.83
2023-05-21T17:28:15.062Z,54.87
2023-05-21T17:29:15.086Z,55.33
2023-05-21T17:30:15.309Z,54.69
2023-05-21T17:31:15.020Z,56.36
2023-05-21T17:32:14.804Z,56.36
2023-05-21T17:33:15.422Z,56.22
2023-05-21T17:34:14.797Z,58.14
2023-05-21T17:35:14.726Z,56.65
2023-05-21T17:36:15.165Z,55.09
2023-05-21T17:37:15.359Z,54.82
2023-05-21T17:38:15.381Z,57.06
2023-05-21T17:39:15.214Z,56.29
2023-05-21T17:40:15.149Z,54.94
2023-05-21T17:41:15.186Z,56.38
2023-05-21T17:42:14.868Z,55.58
2023-05-21T17:43:14.731Z,56.34
2023-05-21T17:44:15.285Z,57.14
2023-05-21T17:45:15.933Z,57.18
2023-05-21T17:46:14.974Z,57.15
2023-05-21T17:47:15.192Z,56.88
2023-05-21T17:48:15.075Z,57.71
2023-05-21T17:49:15.243Z,57.73
2023-05-21T17:50:14.939Z,57.73
2023-05-21T17:51:15.627Z,56.90
2023-05-21T17:52:15.266Z,57.60
2023-05-21T17:53:15.064Z,58.59
2023-05-21T17:54:15.236Z,58.96
2023-05-21T17:55:15.158Z,59.15
2023-05-21T17:56:15.083Z,60.53
2023-05-21T17:57:15.134Z,59.26
2023-05-21T17:58:15.049Z,58.46
2023-05-21T17:59:15.005Z,59.48
2023-05-21T18:00:15.106Z,57.71
2023-05-21T18:01:14.989Z,58.98
2023-05-21T18:02:15.002Z,58.14
2023-05-21T18:03:15.758Z,57.82
2023-05-21T18:04:14.974Z,57.23
2023-05-21T18:05:15.229Z,57.51
2023-05-21T18:06:15.053Z,59.71
2023-05-21T18:07:14.932Z,58.97
2023-05-21T18:08:15.029Z,59.66
2023-05-21T18:09:15.021Z,59.65
2023-05-21T18:10:15.400Z,59.14
2023-05-21T18:11:14.994Z,58.55
2023-05-21T18:12:14.800Z,59.07
2023-05-21T18:13:14.790Z,58.31
2023-05-21T18:14:14.946Z,59.02
2023-05-21T18:15:14.903Z,59.23
2023-05-21T18:16:15.164Z,59.15
2023-05-21T18:17:14.889Z,58.72
2023-05-21T18:18:14.852Z,58.19
2023-05-21T18:19:14.980Z,58.58
2023-05-21T18:20:15.174Z,58.33
2023-05-21T18:21:15.152Z,59.04
2023-05-21T18:22:15.040Z,57.94
2023-05-21T18:23:15.865Z,59.10
2023-05-21T18:24:14.894Z,56.42
2023-05-21T18:25:14.929Z,57.91
2023-05-21T18:26:14.894Z,57.29
2023-05-21T18:27:14.763Z,58.32
2023-05-21T18:28:14.717Z,58.37
2023-05-21T18:29:14.801Z,58.41
2023-05-21T18:30:14.780Z,58.62
2023-05-21T18:31:14.805Z,58.06
2023-05-21T18:32:15.343Z,57.79
2023-05-21T18:33:15.894Z,57.67
2023-05-21T18:34:16.180Z,57.10
2023-05-21T18:35:16.682Z,58.45
2023-05-21T18:36:15.788Z,57.62
2023-05-21T18:37:15.045Z,57.73
2023-05-21T18:38:14.735Z,57.91
2023-05-21T18:39:15.055Z,58.37
2023-05-21T18:40:15.857Z,57.54
2023-05-21T18:41:14.702Z,57.90
2023-05-21T18:42:15.044Z,55.93
2023-05-21T18:43:14.598Z,57.11
2023-05-21T18:44:14.635Z,58.09
2023-05-21T18:45:14.643Z,56.98
2023-05-21T18:46:14.691Z,56.77
2023-05-21T18:47:14.807Z,57.06
2023-05-21T18:48:15.152Z,56.89
2023-05-21T18:49:14.788Z,55.80
2023-05-21T18:50:15.864Z,57.36
2023-05-21T18:51:14.721Z,58.02
2023-05-21T18:52:14.751Z,57.06
2023-05-21T18:53:16.103Z,55.38
2023-05-21T18:54:14.882Z,55.17
2023-05-21T18:55:14.668Z,57.71
2023-05-21T18:56:14.596Z,57.07
2023-05-21T18:57:14.800Z,58.76
2023-05-21T18:58:14.919Z,56.87
2023-05-21T18:59:14.604Z,58.79
2023-05-21T19:00:15.981Z,57.19
2023-05-21T19:01:14.755Z,57.92
2023-05-21T19:02:14.774Z,57.00
2023-05-21T19:03:14.803Z,57.03
2023-05-21T19:04:14.989Z,57.76
2023-05-21T19:05:14.745Z,57.81
2023-05-21T19:06:14.766Z,57.92
2023-05-21T19:07:14.551Z,60.55
2023-05-21T19:08:14.395Z,57.83
2023-05-21T19:09:14.775Z,57.07
2023-05-21T19:10:14.584Z,57.63
2023-05-21T19:11:14.611Z,56.91
2023-05-21T19:12:14.592Z,57.89
2023-05-21T19:13:15.787Z,57.29
2023-05-21T19:14:15.248Z,56.58
2023-05-21T19:15:14.523Z,59.35
2023-05-21T19:16:14.351Z,58.66
2023-05-21T19:17:15.433Z,55.16
2023-05-21T19:18:14.436Z,57.92
2023-05-21T19:19:14.472Z,58.79
2023-05-21T19:20:15.715Z,56.27
2023-05-21T19:21:15.434Z,56.28
2023-05-21T19:22:14.475Z,58.45
2023-05-21T19:23:14.395Z,57.25
2023-05-21T19:24:14.467Z,54.93
2023-05-21T19:25:14.793Z,55.70
2023-05-21T19:26:15.529Z,55.15
2023-05-21T19:27:15.435Z,54.31
2023-05-21T19:28:14.745Z,54.32
2023-05-21T19:29:14.515Z,55.81
2023-05-21T19:30:14.697Z,54.85
2023-05-21T19:31:14.314Z,55.52
2023-05-21T19:32:15.378Z,54.81
2023-05-21T19:33:14.508Z,57.20
2023-05-21T19:34:14.272Z,55.02
2023-05-21T19:35:14.166Z,54.79
2023-05-21T19:36:14.631Z,56.88
2023-05-21T19:37:14.365Z,55.64
2023-05-21T19:38:14.371Z,54.89
2023-05-21T19:39:14.362Z,55.46
2023-05-21T19:40:14.402Z,55.19
2023-05-21T19:41:14.561Z,56.37
2023-05-21T19:42:14.687Z,56.29
2023-05-21T19:43:14.297Z,57.47
2023-05-21T19:44:15.345Z,55.39
2023-05-21T19:45:15.338Z,53.79
2023-05-21T19:46:17.218Z,52.36
2023-05-21T19:47:15.291Z,54.60
2023-05-21T19:48:14.246Z,56.04
2023-05-21T19:49:14.242Z,59.14
2023-05-21T19:50:14.245Z,55.26
2023-05-21T19:51:14.049Z,55.50
2023-05-21T19:52:15.547Z,54.51
2023-05-21T19:53:14.249Z,53.89
2023-05-21T19:54:15.234Z,53.45
2023-05-21T19:55:14.447Z,53.93
2023-05-21T19:56:14.446Z,55.96
2023-05-21T19:57:14.423Z,55.93
2023-05-21T19:58:14.273Z,53.04
2023-05-21T19:59:14.086Z,55.12
2023-05-21T20:00:14.154Z,53.12
2023-05-21T20:01:14.101Z,53.77
2023-05-21T20:02:14.321Z,54.79
2023-05-21T20:03:14.083Z,55.74
2023-05-21T20:04:14.124Z,53.50
2023-05-21T20:05:14.048Z,53.84
2023-05-21T20:06:14.050Z,53.94
2023-05-21T20:07:14.018Z,53.49
2023-05-21T20:08:14.291Z,52.17
2023-05-21T20:09:14.096Z,54.13
2023-05-21T20:10:14.441Z,53.49
2023-05-21T20:11:14.129Z,50.70
2023-05-21T20:12:14.101Z,52.31
2023-05-21T20:13:14.977Z,56.03
2023-05-21T20:14:14.066Z,54.55
2023-05-21T20:15:14.108Z,55.93
2023-05-21T20:16:14.089Z,51.24
2023-05-21T20:17:14.054Z,50.43
2023-05-21T20:18:14.381Z,52.54
2023-05-21T20:19:14.005Z,54.29
2023-05-21T20:20:13.968Z,56.58
2023-05-21T20:21:14.042Z,54.49
2023-05-21T20:22:13.961Z,56.24
2023-05-21T20:23:14.249Z,57.68
2023-05-21T20:24:14.447Z,56.00
2023-05-21T20:25:14.040Z,54.85
2023-05-21T20:26:14.986Z,51.91
2023-05-21T20:27:13.857Z,54.88
2023-05-21T20:28:13.953Z,57.85
2023-05-21T20:29:14.257Z,54.56
2023-05-21T20:30:13.971Z,53.80
2023-05-21T20:31:13.883Z,55.77
2023-05-21T20:32:13.839Z,55.64
2023-05-21T20:33:13.939Z,56.36
2023-05-21T20:34:14.147Z,56.06
2023-05-21T20:35:14.005Z,54.56
2023-05-21T20:36:13.859Z,55.48
2023-05-21T20:37:13.733Z,58.49
2023-05-21T20:38:13.832Z,50.99
2023-05-21T20:39:13.898Z,53.56
2023-05-21T20:40:14.975Z,53.58
2023-05-21T20:41:14.892Z,55.77
2023-05-21T20:42:13.663Z,54.53
2023-05-21T20:43:13.863Z,51.41
2023-05-21T20:44:13.812Z,54.95
2023-05-21T20:45:14.146Z,54.28
2023-05-21T20:46:13.882Z,51.65
2023-05-21T20:47:14.069Z,49.91
2023-05-21T20:48:13.881Z,55.71
2023-05-21T20:49:13.724Z,52.81
2023-05-21T20:50:13.920Z,53.29
2023-05-21T20:51:13.621Z,51.10
2023-05-21T20:52:13.744Z,51.97
2023-05-21T20:53:13.676Z,53.45
2023-05-21T20:54:13.837Z,49.76
2023-05-21T20:55:13.826Z,51.08
2023-05-21T20:56:13.972Z,52.64
2023-05-21T20:57:13.892Z,49.76
2023-05-21T20:58:14.574Z,51.31
2023-05-21T20:59:14.033Z,52.70
2023-05-21T21:00:13.821Z,53.25
2023-05-21T21:01:14.075Z,52.69
2023-05-21T21:02:13.622Z,53.38
2023-05-21T21:03:14.826Z,52.93
2023-05-21T21:04:13.600Z,53.54
2023-05-21T21:05:13.909Z,50.00
2023-05-21T21:06:13.779Z,51.35
2023-05-21T21:07:13.627Z,55.95
2023-05-21T21:08:13.601Z,52.75
2023-05-21T21:09:13.573Z,52.78
2023-05-21T21:10:13.458Z,49.36
2023-05-21T21:11:13.465Z,52.97
2023-05-21T21:12:25.417Z,48.99
2023-05-21T21:13:15.504Z,55.22
2023-05-21T21:14:13.253Z,51.75
2023-05-21T21:15:13.557Z,47.22
2023-05-21T21:16:14.056Z,51.93
2023-05-21T21:17:14.868Z,51.10
2023-05-21T21:18:14.645Z,54.02
2023-05-21T21:19:13.542Z,52.94
2023-05-21T21:20:13.563Z,53.87
2023-05-21T21:21:13.613Z,56.51
2023-05-21T21:22:14.113Z,54.82
2023-05-21T21:23:13.596Z,48.96
2023-05-21T21:24:13.605Z,55.81
2023-05-21T21:25:13.371Z,52.79
2023-05-21T21:26:13.468Z,53.72
2023-05-21T21:27:13.373Z,52.65
2023-05-21T21:28:13.615Z,52.57
2023-05-21T21:29:13.480Z,52.36
2023-05-21T21:30:13.426Z,49.18
2023-05-21T21:31:13.444Z,51.55
2023-05-21T21:32:13.541Z,52.38
2023-05-21T21:33:13.714Z,55.08
2023-05-21T21:34:13.453Z,50.45
2023-05-21T21:35:13.141Z,48.54
2023-05-21T21:36:13.395Z,51.80
2023-05-21T21:37:13.701Z,48.51
2023-05-21T21:38:13.615Z,50.27
2023-05-21T21:39:13.147Z,50.74
2023-05-21T21:40:13.123Z,53.86
2023-05-21T21:41:13.230Z,51.30
2023-05-21T21:42:13.047Z,49.33
2023-05-21T21:43:13.233Z,50.47
2023-05-21T21:44:13.559Z,52.66
2023-05-21T21:45:13.187Z,54.38
2023-05-21T21:46:14.492Z,47.23
2023-05-21T21:47:13.334Z,51.55
2023-05-21T21:48:13.208Z,50.04
2023-05-21T21:49:13.004Z,52.39
2023-05-21T21:50:12.847Z,52.66
2023-05-21T21:51:13.238Z,49.60
2023-05-21T21:52:12.746Z,52.09
2023-05-21T21:53:13.011Z,48.05
2023-05-21T21:54:13.075Z,48.97
2023-05-21T21:55:12.923Z,52.76
2023-05-21T21:56:12.634Z,51.17
2023-05-21T21:57:12.718Z,51.00
2023-05-21T21:58:12.660Z,52.70
2023-05-21T21:59:12.775Z,51.56
2023-05-21T22:00:13.024Z,51.56
2023-05-21T22:01:12.613Z,53.75
2023-05-21T22:02:12.735Z,57.88
2023-05-21T22:03:14.609Z,51.77
2023-05-21T22:04:12.535Z,54.90
2023-05-21T22:05:12.527Z,53.80
2023-05-21T22:06:12.601Z,51.79
2023-05-21T22:07:12.509Z,52.35
2023-05-21T22:08:12.548Z,51.85
2023-05-21T22:09:12.561Z,50.01
2023-05-21T22:10:13.028Z,54.32
2023-05-21T22:11:12.664Z,53.12
2023-05-21T22:12:12.516Z,49.08
2023-05-21T22:13:12.680Z,51.10
2023-05-21T22:14:12.484Z,54.63
2023-05-21T22:15:12.658Z,52.54
2023-05-21T22:16:12.721Z,48.32
2023-05-21T22:17:12.613Z,47.11
2023-05-21T22:18:12.590Z,47.98
2023-05-21T22:19:12.485Z,50.21
2023-05-21T22:20:12.521Z,49.07
2023-05-21T22:21:12.584Z,49.15
2023-05-21T22:22:12.700Z,50.23
2023-05-21T22:23:12.526Z,51.76
2023-05-21T22:24:24.124Z,49.10
2023-05-21T22:25:14.406Z,51.55
2023-05-21T22:26:12.804Z,53.33
2023-05-21T22:27:12.525Z,49.93
2023-05-21T22:28:12.476Z,52.56
2023-05-21T22:29:12.477Z,49.22
2023-05-21T22:30:12.380Z,49.60
2023-05-21T22:31:12.437Z,48.70
2023-05-21T22:32:12.520Z,52.24
2023-05-21T22:33:12.447Z,51.76
2023-05-21T22:34:12.596Z,50.59
2023-05-21T22:35:12.270Z,52.00
2023-05-21T22:36:12.272Z,47.09
2023-05-21T22:37:12.294Z,51.15
2023-05-21T22:38:12.240Z,49.11
2023-05-21T22:39:12.255Z,51.57
2023-05-21T22:40:13.082Z,52.46
2023-05-21T22:41:13.309Z,51.90
2023-05-21T22:42:12.273Z,48.67
2023-05-21T22:43:12.250Z,47.83
2023-05-21T22:44:12.316Z,49.75
2023-05-21T22:45:12.262Z,50.37
2023-05-21T22:46:12.654Z,47.63
2023-05-21T22:47:12.256Z,50.78
2023-05-21T22:48:12.437Z,49.52
2023-05-21T22:49:12.255Z,46.46
2023-05-21T22:50:12.203Z,49.66
2023-05-21T22:51:12.213Z,52.27
2023-05-21T22:52:12.269Z,47.26
2023-05-21T22:53:12.274Z,52.10
2023-05-21T22:54:12.227Z,45.85
2023-05-21T22:55:12.209Z,47.39
2023-05-21T22:56:12.255Z,54.38
2023-05-21T22:57:12.515Z,52.65
2023-05-21T22:58:12.247Z,48.00
2023-05-21T22:59:12.210Z,47.74
2023-05-21T23:00:12.182Z,51.13
2023-05-21T23:01:12.186Z,50.48
2023-05-21T23:02:12.305Z,54.31
2023-05-21T23:03:12.215Z,46.52
2023-05-21T23:04:12.144Z,45.59
2023-05-21T23:05:12.251Z,49.66
2023-05-21T23:06:12.207Z,52.64
2023-05-21T23:07:12.172Z,48.06
2023-05-21T23:08:12.381Z,47.93
2023-05-21T23:09:12.076Z,46.57
2023-05-21T23:10:11.983Z,47.73
2023-05-21T23:11:12.000Z,54.75
2023-05-21T23:12:11.982Z,54.52
2023-05-21T23:13:12.077Z,48.65
2023-05-21T23:14:11.986Z,51.08
2023-05-21T23:15:11.935Z,50.30
2023-05-21T23:16:12.098Z,53.50
2023-05-21T23:17:12.023Z,56.13
2023-05-21T23:18:12.071Z,55.22
2023-05-21T23:19:12.150Z,49.36
2023-05-21T23:20:12.008Z,48.19
2023-05-21T23:21:12.267Z,52.96
2023-05-21T23:22:11.953Z,56.39
2023-05-21T23:23:11.988Z,48.41
2023-05-21T23:24:11.998Z,46.55
2023-05-21T23:25:11.967Z,49.88
2023-05-21T23:26:12.014Z,53.25
2023-05-21T23:27:11.948Z,48.15
2023-05-21T23:28:11.947Z,49.97
2023-05-21T23:29:11.986Z,50.09
2023-05-21T23:30:12.208Z,54.95
2023-05-21T23:31:11.990Z,52.19
2023-05-21T23:32:12.173Z,53.22
2023-05-21T23:33:11.944Z,49.74
2023-05-21T23:34:11.887Z,51.06
2023-05-21T23:35:11.934Z,48.01
2023-05-21T23:36:11.902Z,50.17
2023-05-21T23:37:11.844Z,52.01
2023-05-21T23:38:11.913Z,53.76